createdAt,value
2018-04-29T00:00:09.965Z,6.93
2018-04-29T00:02:35.760Z,5.77
2018-04-29T00:05:01.544Z,7.10
2018-04-29T00:07:27.337Z,6.20
2018-04-29T00:09:53.115Z,8.13
2018-04-29T00:12:18.867Z,5.63
2018-04-29T00:14:44.652Z,8.93
2018-04-29T00:17:10.412Z,7.43
2018-04-29T00:19:36.179Z,6.83
2018-04-29T00:22:01.927Z,8.40
2018-04-29T00:24:27.984Z,13.20
2018-04-29T00:26:53.768Z,7.53
2018-04-29T00:29:19.519Z,8.13
2018-04-29T00:31:45.291Z,8.73
2018-04-29T00:34:11.047Z,10.00
2018-04-29T00:36:36.819Z,10.60
2018-04-29T00:39:02.596Z,7.87
2018-04-29T00:41:28.604Z,7.10
2018-04-29T00:43:54.379Z,6.33
2018-04-29T00:46:20.156Z,5.90
2018-04-29T00:48:45.960Z,8.40
2018-04-29T00:51:11.696Z,7.70
2018-04-29T00:53:37.469Z,5.53
2018-04-29T00:56:03.232Z,6.50
2018-04-29T00:58:28.988Z,13.10
2018-04-29T01:00:54.752Z,6.93
2018-04-29T01:03:20.820Z,6.40
2018-04-29T01:05:46.575Z,6.50
2018-04-29T01:08:12.613Z,5.60
2018-04-29T01:10:38.393Z,6.50
2018-04-29T01:13:04.151Z,10.13
2018-04-29T01:15:29.948Z,8.97
2018-04-29T01:17:55.711Z,9.50
2018-04-29T01:20:21.486Z,7.00
2018-04-29T01:22:47.266Z,8.17
2018-04-29T01:25:13.035Z,10.03
2018-04-29T01:27:38.847Z,8.00
2018-04-29T01:30:04.603Z,7.80
2018-04-29T01:32:30.708Z,8.80
2018-04-29T01:34:56.468Z,8.33
2018-04-29T01:37:22.297Z,9.30
2018-04-29T01:39:48.065Z,12.53
2018-04-29T01:42:13.799Z,10.60
2018-04-29T01:44:39.565Z,14.33
2018-04-29T01:47:05.343Z,10.07
2018-04-29T01:49:31.108Z,7.60
2018-04-29T01:51:56.891Z,8.40
2018-04-29T01:54:22.648Z,10.47
2018-04-29T01:56:48.488Z,8.60
2018-04-29T01:59:14.249Z,8.53
2018-04-29T02:01:40.029Z,7.27
2018-04-29T02:04:05.783Z,9.93
2018-04-29T02:06:31.543Z,9.17
2018-04-29T02:08:57.298Z,10.50
2018-04-29T02:11:23.080Z,8.40
2018-04-29T02:13:48.872Z,13.43
2018-04-29T02:16:14.636Z,7.27
2018-04-29T02:18:40.518Z,10.50
2018-04-29T02:21:06.278Z,7.63
2018-04-29T02:23:32.047Z,6.80
2018-04-29T02:25:57.796Z,8.63
2018-04-29T02:28:23.563Z,7.80
2018-04-29T02:30:49.318Z,8.17
2018-04-29T02:33:15.104Z,8.10
2018-04-29T02:35:40.859Z,9.13
2018-04-29T02:38:06.636Z,9.87
2018-04-29T02:40:32.395Z,8.10
2018-04-29T02:42:58.198Z,10.23
2018-04-29T02:45:23.949Z,6.83
2018-04-29T02:47:49.728Z,8.43
2018-04-29T02:50:15.480Z,8.80
2018-04-29T02:52:41.549Z,7.63
2018-04-29T02:55:07.310Z,8.00
2018-04-29T02:57:33.147Z,7.60
2018-04-29T02:59:58.923Z,7.47
2018-04-29T03:02:24.719Z,9.10
2018-04-29T03:04:50.899Z,7.93
2018-04-29T03:07:16.685Z,7.70
2018-04-29T03:09:42.440Z,9.10
2018-04-29T03:12:08.204Z,7.57
2018-04-29T03:14:33.991Z,10.50
2018-04-29T03:16:59.926Z,10.17
2018-04-29T03:19:25.702Z,6.80
2018-04-29T03:21:51.447Z,8.90
2018-04-29T03:24:17.238Z,8.20
2018-04-29T03:26:42.983Z,12.37
2018-04-29T03:29:08.756Z,7.80
2018-04-29T03:31:34.507Z,7.57
2018-04-29T03:34:00.292Z,10.40
2018-04-29T03:36:26.040Z,9.03
2018-04-29T03:38:51.791Z,9.50
2018-04-29T03:41:17.562Z,9.50
2018-04-29T03:43:43.325Z,9.70
2018-04-29T03:46:09.084Z,12.13
2018-04-29T03:48:34.863Z,8.73
2018-04-29T03:51:00.626Z,12.03
2018-04-29T03:53:26.390Z,9.13
2018-04-29T03:55:52.408Z,10.20
2018-04-29T03:58:30.387Z,9.63
2018-04-29T04:01:08.504Z,9.80
2018-04-29T04:06:41.197Z,8.10
2018-04-29T04:09:06.992Z,8.43
2018-04-29T04:11:32.756Z,10.60
2018-04-29T04:13:58.491Z,11.73
2018-04-29T04:16:24.262Z,13.83
2018-04-29T04:18:50.132Z,9.87
2018-04-29T04:21:15.879Z,10.30
2018-04-29T04:23:41.725Z,9.50
2018-04-29T04:26:07.448Z,12.40
2018-04-29T04:28:33.397Z,10.23
2018-04-29T04:30:59.147Z,9.50
2018-04-29T04:33:24.923Z,11.23
2018-04-29T04:35:50.672Z,17.43
2018-04-29T04:38:16.438Z,9.77
2018-04-29T04:40:42.235Z,12.70
2018-04-29T04:43:07.983Z,12.37
2018-04-29T04:45:33.889Z,8.07
2018-04-29T04:47:59.692Z,10.77
2018-04-29T04:50:25.491Z,9.63
2018-04-29T04:52:51.255Z,11.50
2018-04-29T04:55:17.044Z,11.73
2018-04-29T04:57:42.811Z,13.97
2018-04-29T05:00:08.579Z,10.70
2018-04-29T05:02:34.329Z,12.87
2018-04-29T05:05:00.120Z,14.73
2018-04-29T05:07:25.898Z,13.30
2018-04-29T05:09:51.670Z,12.20
2018-04-29T05:12:17.415Z,13.23
2018-04-29T05:14:43.196Z,13.00
2018-04-29T05:17:08.950Z,11.90
2018-04-29T05:19:34.731Z,11.60
2018-04-29T05:22:00.485Z,16.57
2018-04-29T05:24:26.283Z,14.20
2018-04-29T05:26:52.039Z,9.70
2018-04-29T05:29:17.855Z,15.40
2018-04-29T05:31:43.607Z,10.93
2018-04-29T05:34:09.374Z,17.20
2018-04-29T05:36:35.500Z,15.03
2018-04-29T05:39:01.267Z,13.95
2018-04-29T05:41:27.032Z,17.83
2018-04-29T05:43:52.815Z,16.23
2018-04-29T05:46:18.580Z,17.20
2018-04-29T05:48:44.332Z,14.13
2018-04-29T05:51:10.099Z,15.80
2018-04-29T05:53:35.848Z,15.37
2018-04-29T05:56:01.755Z,14.30
2018-04-29T05:58:27.514Z,13.73
2018-04-29T06:00:53.280Z,15.37
2018-04-29T06:03:19.024Z,14.50
2018-04-29T06:05:44.787Z,22.13
2018-04-29T06:08:10.524Z,18.70
2018-04-29T06:10:36.269Z,19.63
2018-04-29T06:13:02.056Z,16.30
2018-04-29T06:15:27.890Z,17.57
2018-04-29T06:17:53.672Z,14.93
2018-04-29T06:20:19.524Z,17.03
2018-04-29T06:22:55.125Z,15.47
2018-04-29T06:25:21.967Z,16.87
2018-04-29T06:27:47.719Z,16.87
2018-04-29T06:30:13.499Z,17.57
2018-04-29T06:32:39.263Z,16.40
2018-04-29T06:35:05.048Z,16.67
2018-04-29T06:37:30.842Z,15.27
2018-04-29T06:39:56.592Z,15.40
2018-04-29T06:42:22.366Z,15.13
2018-04-29T06:44:48.178Z,16.80
2018-04-29T06:47:13.949Z,15.57
2018-04-29T06:49:39.712Z,17.13
2018-04-29T06:52:05.483Z,21.23
2018-04-29T06:54:31.248Z,19.37
2018-04-29T06:56:57.361Z,17.37
2018-04-29T06:59:23.108Z,17.10
2018-04-29T07:01:49.158Z,23.47
2018-04-29T07:04:14.919Z,15.97
2018-04-29T07:06:40.744Z,16.10
2018-04-29T07:09:06.479Z,16.23
2018-04-29T07:11:32.260Z,14.50
2018-04-29T07:13:58.005Z,16.13
2018-04-29T07:16:23.787Z,16.83
2018-04-29T07:18:49.596Z,15.23
2018-04-29T07:21:15.376Z,17.57
2018-04-29T07:23:41.123Z,13.13
2018-04-29T07:26:06.929Z,18.43
2018-04-29T07:28:32.660Z,19.40
2018-04-29T07:30:58.446Z,17.83
2018-04-29T07:33:24.188Z,19.00
2018-04-29T07:35:50.010Z,15.37
2018-04-29T07:38:15.976Z,16.60
2018-04-29T07:40:41.729Z,17.17
2018-04-29T07:43:07.519Z,16.10
2018-04-29T07:45:33.284Z,13.70
2018-04-29T07:47:59.049Z,15.80
2018-04-29T07:50:24.876Z,14.97
2018-04-29T07:52:50.648Z,13.87
2018-04-29T07:55:16.411Z,15.23
2018-04-29T07:57:42.213Z,13.20
2018-04-29T08:00:08.003Z,16.63
2018-04-29T08:02:33.775Z,13.60
2018-04-29T08:04:59.528Z,14.90
2018-04-29T08:07:25.322Z,17.00
2018-04-29T08:09:51.067Z,15.37
2018-04-29T08:12:16.877Z,14.83
2018-04-29T08:14:42.653Z,14.60
2018-04-29T08:17:08.583Z,14.17
2018-04-29T08:19:34.344Z,16.47
2018-04-29T08:22:00.130Z,16.90
2018-04-29T08:24:25.895Z,15.13
2018-04-29T08:26:51.667Z,19.07
2018-04-29T08:29:17.424Z,16.10
2018-04-29T08:31:43.203Z,12.37
2018-04-29T08:34:08.972Z,17.27
2018-04-29T08:36:34.757Z,15.20
2018-04-29T08:39:00.529Z,12.50
2018-04-29T08:41:26.296Z,13.80
2018-04-29T08:43:52.065Z,13.20
2018-04-29T08:46:17.824Z,12.27
2018-04-29T08:48:43.743Z,13.80
2018-04-29T08:51:09.514Z,14.80
2018-04-29T08:53:35.288Z,10.67
2018-04-29T08:56:07.939Z,13.27
2018-04-29T08:58:33.672Z,10.70
2018-04-29T09:00:59.423Z,13.00
2018-04-29T09:03:25.361Z,13.47
2018-04-29T09:05:51.176Z,13.50
2018-04-29T09:08:16.971Z,11.77
2018-04-29T09:10:42.731Z,16.73
2018-04-29T09:13:08.499Z,10.40
2018-04-29T09:15:34.281Z,11.47
2018-04-29T09:18:00.059Z,12.23
2018-04-29T09:20:25.819Z,11.13
2018-04-29T09:22:51.611Z,13.40
2018-04-29T09:25:17.351Z,11.37
2018-04-29T09:27:43.131Z,11.17
2018-04-29T09:30:08.887Z,10.60
2018-04-29T09:32:34.662Z,11.40
2018-04-29T09:35:00.423Z,8.80
2018-04-29T09:37:26.215Z,13.17
2018-04-29T09:39:51.959Z,10.13
2018-04-29T09:42:17.753Z,11.23
2018-04-29T09:44:43.531Z,13.80
2018-04-29T09:47:09.303Z,8.87
2018-04-29T09:49:35.099Z,15.07
2018-04-29T09:52:00.884Z,11.70
2018-04-29T09:54:26.647Z,10.40
2018-04-29T09:56:52.407Z,9.20
2018-04-29T09:59:18.194Z,10.73
2018-04-29T10:01:50.215Z,10.43
2018-04-29T10:04:16.295Z,9.50
2018-04-29T10:06:42.068Z,11.43
2018-04-29T10:09:07.855Z,10.97
2018-04-29T10:11:33.613Z,11.63
2018-04-29T10:13:59.426Z,8.70
2018-04-29T10:16:25.315Z,11.20
2018-04-29T10:18:51.103Z,9.80
2018-04-29T10:21:16.927Z,8.80
2018-04-29T10:23:42.803Z,8.77
2018-04-29T10:26:08.570Z,11.00
2018-04-29T10:28:34.364Z,10.13
2018-04-29T10:31:00.116Z,10.30
2018-04-29T10:33:25.914Z,8.27
2018-04-29T10:35:51.656Z,9.80
2018-04-29T10:38:17.439Z,9.50
2018-04-29T10:40:43.498Z,9.03
2018-04-29T10:43:09.282Z,8.53
2018-04-29T10:45:35.747Z,8.47
2018-04-29T10:48:01.520Z,7.93
2018-04-29T10:50:27.309Z,10.47
2018-04-29T10:52:53.084Z,7.77
2018-04-29T10:55:18.883Z,8.13
2018-04-29T10:57:44.630Z,10.63
2018-04-29T11:00:10.763Z,10.80
2018-04-29T11:02:36.569Z,8.17
2018-04-29T11:05:02.373Z,10.00
2018-04-29T11:07:28.112Z,5.53
2018-04-29T11:09:53.906Z,7.80
2018-04-29T11:12:19.648Z,5.20
2018-04-29T11:14:45.488Z,5.00
2018-04-29T11:17:11.244Z,5.77
2018-04-29T11:19:36.998Z,6.60
2018-04-29T11:22:02.822Z,6.97
2018-04-29T11:24:28.596Z,5.70
2018-04-29T11:26:54.362Z,5.90
2018-04-29T11:29:20.173Z,7.03
2018-04-29T11:31:45.964Z,8.40
2018-04-29T11:34:11.728Z,10.30
2018-04-29T11:36:37.520Z,10.10
2018-04-29T11:39:03.304Z,8.83
2018-04-29T11:41:29.089Z,10.30
2018-04-29T11:43:54.863Z,7.60
2018-04-29T11:46:20.628Z,6.87
2018-04-29T11:48:46.398Z,6.50
2018-04-29T11:51:12.351Z,6.00
2018-04-29T11:53:38.132Z,7.00
2018-04-29T11:56:03.904Z,8.57
2018-04-29T11:58:29.720Z,6.07
2018-04-29T12:00:55.507Z,6.07
2018-04-29T12:03:21.260Z,6.50
2018-04-29T12:05:47.050Z,6.40
2018-04-29T12:08:12.811Z,6.00
2018-04-29T12:10:38.647Z,7.60
2018-04-29T12:13:04.419Z,6.20
2018-04-29T12:15:30.199Z,5.83
2018-04-29T12:17:55.951Z,12.17
2018-04-29T12:20:21.718Z,6.47
2018-04-29T12:22:47.485Z,6.20
2018-04-29T12:25:13.263Z,5.87
2018-04-29T12:27:39.012Z,5.80
2018-04-29T12:30:04.807Z,5.60
2018-04-29T12:32:30.556Z,6.67
2018-04-29T12:34:56.327Z,5.57
2018-04-29T12:37:22.092Z,6.63
2018-04-29T12:39:47.926Z,9.53
2018-04-29T12:42:13.663Z,7.80
2018-04-29T12:44:39.448Z,10.17
2018-04-29T12:47:05.201Z,8.00
2018-04-29T12:49:30.983Z,13.93
2018-04-29T12:51:56.827Z,9.80
2018-04-29T12:54:22.594Z,8.60
2018-04-29T12:56:48.399Z,7.43
2018-04-29T12:59:14.150Z,12.13
2018-04-29T13:01:39.966Z,8.27
2018-04-29T13:04:05.720Z,8.57
2018-04-29T13:06:31.511Z,12.70
2018-04-29T13:08:57.253Z,8.47
2018-04-29T13:11:23.023Z,8.43
2018-04-29T13:13:48.803Z,13.23
2018-04-29T13:16:14.583Z,7.23
2018-04-29T13:18:40.367Z,8.73
2018-04-29T13:21:06.147Z,6.33
2018-04-29T13:23:31.933Z,5.20
2018-04-29T13:25:57.759Z,7.60
2018-04-29T13:28:23.495Z,7.27
2018-04-29T13:30:49.288Z,7.17
2018-04-29T13:33:15.068Z,5.53
2018-04-29T13:35:40.871Z,7.60
2018-04-29T13:38:06.625Z,6.97
2018-04-29T13:40:32.389Z,8.10
2018-04-29T13:42:58.177Z,7.57
2018-04-29T13:45:23.939Z,9.33
2018-04-29T13:47:49.697Z,7.27
2018-04-29T13:50:15.464Z,6.63
2018-04-29T13:52:41.556Z,6.63
2018-04-29T13:55:07.357Z,10.23
2018-04-29T13:57:33.175Z,6.73
2018-04-29T13:59:58.941Z,5.03
2018-04-29T14:02:24.711Z,10.03
2018-04-29T14:04:50.784Z,6.80
2018-04-29T14:07:16.566Z,11.10
2018-04-29T14:09:42.363Z,13.73
2018-04-29T14:12:08.124Z,10.03
2018-04-29T14:14:33.895Z,7.50
2018-04-29T14:16:59.666Z,8.87
2018-04-29T14:19:25.440Z,10.03
2018-04-29T14:21:51.233Z,10.20
2018-04-29T14:24:17.004Z,8.27
2018-04-29T14:26:42.963Z,7.53
2018-04-29T14:29:08.875Z,8.77
2018-04-29T14:31:34.668Z,7.40
2018-04-29T14:34:00.443Z,7.47
2018-04-29T14:36:26.210Z,6.77
2018-04-29T14:38:52.020Z,7.13
2018-04-29T14:41:17.783Z,8.20
2018-04-29T14:43:43.560Z,9.97
2018-04-29T14:46:09.339Z,10.73
2018-04-29T14:48:35.096Z,8.33
2018-04-29T14:51:00.854Z,9.60
2018-04-29T14:53:26.639Z,11.60
2018-04-29T14:55:52.469Z,11.20
2018-04-29T14:58:18.246Z,12.27
2018-04-29T15:00:44.020Z,14.00
2018-04-29T15:03:09.859Z,8.77
2018-04-29T15:05:35.619Z,10.70
2018-04-29T15:08:01.632Z,11.53
2018-04-29T15:10:27.413Z,9.70
2018-04-29T15:12:53.184Z,10.67
2018-04-29T15:15:18.956Z,12.93
2018-04-29T15:17:44.741Z,12.30
2018-04-29T15:20:10.529Z,12.30
2018-04-29T15:22:36.324Z,14.00
2018-04-29T15:25:02.080Z,13.30
2018-04-29T15:27:27.936Z,13.57
2018-04-29T15:29:53.773Z,15.90
2018-04-29T15:32:19.533Z,12.47
2018-04-29T15:34:45.295Z,15.17
2018-04-29T15:37:11.065Z,15.00
2018-04-29T15:39:36.831Z,13.40
2018-04-29T15:42:02.605Z,18.83
2018-04-29T15:44:28.528Z,15.37
2018-04-29T15:46:54.272Z,13.37
2018-04-29T15:49:20.039Z,18.93
2018-04-29T15:51:45.815Z,16.07
2018-04-29T15:54:11.588Z,16.33
2018-04-29T15:56:37.347Z,19.67
2018-04-29T15:59:03.134Z,19.60
2018-04-29T16:01:28.887Z,19.20
2018-04-29T16:03:54.719Z,22.80
2018-04-29T16:06:20.475Z,18.57
2018-04-29T16:08:46.239Z,18.40
2018-04-29T16:11:12.004Z,18.63
2018-04-29T16:13:37.871Z,23.43
2018-04-29T16:16:03.675Z,23.27
2018-04-29T16:18:29.459Z,20.47
2018-04-29T16:20:55.208Z,19.07
2018-04-29T16:23:21.079Z,17.90
2018-04-29T16:25:46.866Z,21.47
2018-04-29T16:28:12.659Z,19.60
2018-04-29T16:30:38.407Z,20.07
2018-04-29T16:33:04.178Z,17.20
2018-04-29T16:35:29.968Z,19.00
2018-04-29T16:37:55.972Z,17.93
2018-04-29T16:40:21.751Z,18.13
2018-04-29T16:42:47.515Z,17.60
2018-04-29T16:45:13.336Z,17.27
2018-04-29T16:47:39.080Z,16.87
2018-04-29T16:50:04.864Z,21.17
2018-04-29T16:52:30.676Z,14.83
2018-04-29T16:54:56.455Z,15.50
2018-04-29T16:57:22.221Z,16.40
2018-04-29T16:59:48.009Z,16.60
2018-04-29T17:02:13.743Z,16.20
2018-04-29T17:04:39.534Z,18.53
2018-04-29T17:07:05.283Z,16.93
2018-04-29T17:09:31.141Z,16.27
2018-04-29T17:11:56.824Z,15.20
2018-04-29T17:14:22.615Z,15.67
2018-04-29T17:16:48.433Z,16.40
2018-04-29T17:19:14.217Z,13.60
2018-04-29T17:21:39.989Z,19.33
2018-04-29T17:24:05.820Z,17.80
2018-04-29T17:26:31.564Z,17.80
2018-04-29T17:28:57.428Z,20.13
2018-04-29T17:31:23.187Z,18.67
2018-04-29T17:33:48.955Z,16.20
2018-04-29T17:36:14.722Z,18.10
2018-04-29T17:38:40.471Z,17.47
2018-04-29T17:41:06.223Z,18.30
2018-04-29T17:43:32.007Z,17.40
2018-04-29T17:45:57.775Z,18.47
2018-04-29T17:48:23.730Z,20.33
2018-04-29T17:50:49.508Z,21.43
2018-04-29T17:53:15.424Z,23.93
2018-04-29T17:55:41.194Z,21.47
2018-04-29T17:58:07.021Z,24.87
2018-04-29T18:00:32.811Z,18.80
2018-04-29T18:02:58.582Z,23.13
2018-04-29T18:05:24.359Z,25.20
2018-04-29T18:07:50.125Z,22.43
2018-04-29T18:10:15.919Z,21.90
2018-04-29T18:12:41.687Z,25.03
2018-04-29T18:15:07.623Z,27.07
2018-04-29T18:17:33.403Z,22.30
2018-04-29T18:19:59.139Z,25.27
2018-04-29T18:22:24.931Z,24.70
2018-04-29T18:24:50.750Z,25.67
2018-04-29T18:27:16.499Z,22.13
2018-04-29T18:29:42.298Z,25.03
2018-04-29T18:32:08.071Z,29.73
2018-04-29T18:34:33.844Z,21.47
2018-04-29T18:36:59.667Z,22.73
2018-04-29T18:39:25.475Z,22.70
2018-04-29T18:41:51.244Z,18.47
2018-04-29T18:44:17.016Z,22.43
2018-04-29T18:46:42.835Z,22.90
2018-04-29T18:49:08.628Z,22.50
2018-04-29T18:51:34.468Z,26.50
2018-04-29T18:54:00.384Z,20.80
2018-04-29T18:56:26.317Z,22.87
2018-04-29T18:58:52.068Z,22.40
2018-04-29T19:01:17.876Z,22.20
2018-04-29T19:03:43.671Z,24.10
2018-04-29T19:06:09.500Z,21.40
2018-04-29T19:08:35.276Z,25.50
2018-04-29T19:11:01.051Z,23.03
2018-04-29T19:13:26.811Z,24.10
2018-04-29T19:15:52.592Z,23.60
2018-04-29T19:18:18.365Z,21.67
2018-04-29T19:20:44.208Z,20.47
2018-04-29T19:23:09.930Z,23.53
2018-04-29T19:25:35.732Z,26.33
2018-04-29T19:28:01.507Z,27.83
2018-04-29T19:30:27.282Z,30.60
2018-04-29T19:32:53.094Z,25.20
2018-04-29T19:35:18.871Z,30.90
2018-04-29T19:37:44.649Z,27.77
2018-04-29T19:40:10.433Z,30.87
2018-04-29T19:42:36.277Z,31.30
2018-04-29T19:45:02.056Z,36.77
2018-04-29T19:47:27.840Z,29.20
2018-04-29T19:49:53.614Z,30.47
2018-04-29T19:52:19.395Z,31.77
2018-04-29T19:54:45.160Z,33.97
2018-04-29T19:57:11.193Z,28.80
2018-04-29T19:59:36.999Z,34.40
2018-04-29T20:02:02.819Z,32.93
2018-04-29T20:04:28.607Z,32.00
2018-04-29T20:06:54.360Z,34.20
2018-04-29T20:09:20.147Z,33.40
2018-04-29T20:11:45.903Z,32.53
2018-04-29T20:14:11.679Z,30.00
2018-04-29T20:16:37.483Z,35.23
2018-04-29T20:19:03.246Z,35.40
2018-04-29T20:21:29.026Z,28.13
2018-04-29T20:23:54.926Z,30.30
2018-04-29T20:26:20.619Z,31.37
2018-04-29T20:28:46.372Z,29.87
2018-04-29T20:31:12.177Z,32.90
2018-04-29T20:33:37.947Z,29.90
2018-04-29T20:36:03.695Z,30.73
2018-04-29T20:38:29.611Z,28.37
2018-04-29T20:40:55.406Z,27.23
2018-04-29T20:43:21.188Z,29.53
2018-04-29T20:45:46.974Z,30.37
2018-04-29T20:48:12.719Z,28.67
2018-04-29T20:50:38.507Z,36.23
2018-04-29T20:53:04.300Z,28.00
2018-04-29T20:55:30.053Z,29.17
2018-04-29T20:57:56.164Z,28.97
2018-04-29T21:00:21.932Z,34.93
2018-04-29T21:02:47.705Z,27.17
2018-04-29T21:05:13.720Z,31.20
2018-04-29T21:07:39.555Z,29.50
2018-04-29T21:10:05.307Z,31.23
2018-04-29T21:12:31.075Z,33.60
2018-04-29T21:14:56.832Z,29.93
2018-04-29T21:17:22.668Z,30.43
2018-04-29T21:19:48.396Z,26.60
2018-04-29T21:22:14.155Z,31.80
2018-04-29T21:24:40.167Z,30.00
2018-04-29T21:27:05.959Z,29.75
2018-04-29T21:29:31.711Z,31.07
2018-04-29T21:31:57.476Z,32.00
2018-04-29T21:34:23.246Z,28.80
2018-04-29T21:36:49.043Z,30.07
2018-04-29T21:39:14.817Z,34.33
2018-04-29T21:41:40.579Z,34.00
2018-04-29T21:44:06.339Z,29.07
2018-04-29T21:46:32.123Z,30.57
2018-04-29T21:48:57.888Z,31.03
2018-04-29T21:51:23.664Z,28.53
2018-04-29T21:53:49.431Z,27.73
2018-04-29T21:56:15.432Z,29.60
2018-04-29T21:58:41.147Z,31.93
2018-04-29T22:01:06.917Z,27.70
2018-04-29T22:03:32.700Z,25.80
2018-04-29T22:05:58.452Z,31.53
2018-04-29T22:08:24.222Z,32.17
2018-04-29T22:10:49.987Z,29.13
2018-04-29T22:13:15.728Z,31.37
2018-04-29T22:15:41.532Z,29.87
2018-04-29T22:18:07.288Z,27.97
2018-04-29T22:20:33.068Z,33.93
2018-04-29T22:22:58.866Z,30.37
2018-04-29T22:25:24.631Z,30.20
2018-04-29T22:27:50.389Z,27.37
2018-04-29T22:30:16.168Z,30.73
2018-04-29T22:32:41.964Z,30.90
2018-04-29T22:35:07.759Z,27.00
2018-04-29T22:37:33.507Z,24.97
2018-04-29T22:39:59.243Z,24.93
2018-04-29T22:42:25.015Z,24.63
2018-04-29T22:44:56.871Z,28.53
2018-04-29T22:47:22.643Z,30.35
2018-04-29T22:49:55.295Z,28.80
2018-04-29T22:52:21.057Z,24.60
2018-04-29T22:54:46.827Z,24.17
2018-04-29T22:57:12.595Z,27.17
2018-04-29T22:59:38.652Z,24.40
2018-04-29T23:02:04.420Z,25.00
2018-04-29T23:04:30.243Z,22.20
2018-04-29T23:06:56.004Z,23.23
2018-04-29T23:09:21.768Z,23.37
2018-04-29T23:11:47.562Z,19.10
2018-04-29T23:14:13.323Z,20.83
2018-04-29T23:16:39.075Z,24.70
2018-04-29T23:19:04.835Z,24.03
2018-04-29T23:21:30.854Z,23.93
2018-04-29T23:23:56.667Z,20.92
2018-04-29T23:26:22.489Z,22.90
2018-04-29T23:28:48.256Z,19.60
2018-04-29T23:31:14.024Z,22.83
2018-04-29T23:33:39.772Z,20.03
2018-04-29T23:36:05.551Z,18.37
2018-04-29T23:38:31.292Z,21.20
2018-04-29T23:40:57.060Z,18.20
2018-04-29T23:43:22.817Z,16.50
2018-04-29T23:45:48.619Z,15.60
2018-04-29T23:48:14.372Z,17.03
2018-04-29T23:50:40.162Z,18.77
2018-04-29T23:53:05.980Z,15.27
2018-04-29T23:55:31.920Z,17.27
2018-04-29T23:57:57.697Z,15.40
